createdAt,value
2023-09-12T00:00:24.598Z,98081.34
2023-09-12T00:02:51.515Z,98083.84
2023-09-12T00:05:18.284Z,98087.78
2023-09-12T00:07:44.902Z,98086.94
2023-09-12T00:10:11.525Z,98084.19
2023-09-12T00:12:38.137Z,98080.03
2023-09-12T00:15:05.648Z,98089.34
2023-09-12T00:17:32.334Z,98095.66
2023-09-12T00:19:58.908Z,98089.34
2023-09-12T00:22:25.441Z,98090.25
2023-09-12T00:24:51.995Z,98089.56
2023-09-12T00:27:18.593Z,98091.88
2023-09-12T00:29:45.285Z,98090.41
2023-09-12T00:32:11.813Z,98093.06
2023-09-12T00:34:38.434Z,98096.84
2023-09-12T00:37:05.722Z,98100.94
2023-09-12T00:39:33.024Z,98095.16
2023-09-12T00:44:26.091Z,98082.47
2023-09-12T00:46:54.509Z,98087.63
2023-09-12T00:49:23.548Z,98089.59
2023-09-12T00:51:51.744Z,98095.22
2023-09-12T00:54:18.811Z,98092.06
2023-09-12T00:56:46.362Z,98089.75
2023-09-12T00:59:14.373Z,98087.19
2023-09-12T01:01:41.075Z,98091.34
2023-09-12T01:04:14.634Z,98086.06
2023-09-12T01:06:48.701Z,98086.41
2023-09-12T01:09:15.458Z,98081.97
2023-09-12T01:11:42.577Z,98089.75
2023-09-12T01:14:09.139Z,98088.41
2023-09-12T01:16:35.706Z,98103.34
2023-09-12T01:19:02.766Z,98095.47
2023-09-12T01:21:41.177Z,98101.34
2023-09-12T01:24:07.711Z,98094.50
2023-09-12T01:27:00.451Z,98094.84
2023-09-12T01:29:27.863Z,98103.63
2023-09-12T01:31:56.085Z,98089.00
2023-09-12T01:34:22.714Z,98108.72
2023-09-12T01:36:49.287Z,98103.66
2023-09-12T01:39:15.869Z,98112.13
2023-09-12T01:41:46.946Z,98101.81
2023-09-12T01:44:15.293Z,98095.75
2023-09-12T01:46:43.334Z,98096.44
2023-09-12T01:49:12.042Z,98100.50
2023-09-12T01:51:39.269Z,98092.97
2023-09-12T01:54:08.063Z,98085.34
2023-09-12T01:56:35.220Z,98087.75
2023-09-12T01:59:03.200Z,98082.38
2023-09-12T02:01:29.770Z,98091.78
2023-09-12T02:03:56.389Z,98089.16
2023-09-12T02:06:23.083Z,98091.78
2023-09-12T02:08:49.591Z,98088.69
2023-09-12T02:11:16.111Z,98095.97
2023-09-12T02:13:42.638Z,98093.06
2023-09-12T02:16:09.527Z,98095.94
2023-09-12T02:18:36.298Z,98088.59
2023-09-12T02:21:02.995Z,98092.25
2023-09-12T02:23:29.556Z,98104.25
2023-09-12T02:25:57.048Z,98096.25
2023-09-12T02:28:23.629Z,98107.13
2023-09-12T02:30:50.225Z,98104.16
2023-09-12T02:33:16.913Z,98113.78
2023-09-12T02:35:43.595Z,98111.03
2023-09-12T02:38:10.260Z,98110.66
2023-09-12T02:40:36.872Z,98108.72
2023-09-12T02:43:03.548Z,98103.38
2023-09-12T02:45:30.150Z,98106.47
2023-09-12T02:47:56.820Z,98105.31
2023-09-12T02:50:23.370Z,98096.38
2023-09-12T02:52:49.951Z,98092.47
2023-09-12T02:55:16.501Z,98097.03
2023-09-12T02:57:43.100Z,98092.38
2023-09-12T03:00:10.763Z,98093.16
2023-09-12T03:02:37.509Z,98087.66
2023-09-12T03:05:04.466Z,98084.22
2023-09-12T03:07:31.645Z,98091.66
2023-09-12T03:09:58.280Z,98090.38
2023-09-12T03:12:24.846Z,98094.41
2023-09-12T03:14:51.393Z,98085.59
2023-09-12T03:17:18.044Z,98092.44
2023-09-12T03:19:44.691Z,98092.81
2023-09-12T03:22:11.217Z,98094.09
2023-09-12T03:24:37.776Z,98093.81
2023-09-12T03:27:04.708Z,98090.28
2023-09-12T03:29:32.500Z,98088.09
2023-09-12T03:31:59.107Z,98077.25
2023-09-12T03:34:25.934Z,98084.00
2023-09-12T03:36:52.430Z,98088.38
2023-09-12T03:39:18.934Z,98074.50
2023-09-12T03:41:45.501Z,98080.78
2023-09-12T03:44:12.045Z,98077.72
2023-09-12T03:46:38.654Z,98077.94
2023-09-12T03:49:05.416Z,98071.84
2023-09-12T03:51:32.049Z,98077.03
2023-09-12T03:53:58.611Z,98074.50
2023-09-12T03:56:25.139Z,98075.97
2023-09-12T03:58:51.693Z,98073.69
2023-09-12T04:01:18.291Z,98074.50
2023-09-12T04:03:45.856Z,98073.81
2023-09-12T04:06:12.561Z,98074.38
2023-09-12T04:08:39.095Z,98079.88
2023-09-12T04:11:05.604Z,98087.63
2023-09-12T04:13:32.107Z,98084.66
2023-09-12T04:15:58.829Z,98084.19
2023-09-12T04:18:25.631Z,98089.56
2023-09-12T04:20:52.218Z,98082.59
2023-09-12T04:23:18.841Z,98085.56
2023-09-12T04:25:47.352Z,98092.66
2023-09-12T04:28:13.869Z,98084.13
2023-09-12T04:30:41.093Z,98089.91
2023-09-12T04:33:07.876Z,98091.94
2023-09-12T04:35:35.346Z,98091.44
2023-09-12T04:38:02.176Z,98089.69
2023-09-12T04:40:28.723Z,98079.06
2023-09-12T04:42:55.210Z,98089.50
2023-09-12T04:45:21.920Z,98088.34
2023-09-12T04:47:48.450Z,98098.00
2023-09-12T04:50:15.035Z,98080.69
2023-09-12T04:52:42.373Z,98092.16
2023-09-12T04:55:09.264Z,98089.16
2023-09-12T04:57:35.884Z,98094.88
2023-09-12T05:00:02.522Z,98100.84
2023-09-12T05:02:29.336Z,98093.25
2023-09-12T05:04:55.990Z,98099.78
2023-09-12T05:07:22.656Z,98097.16
2023-09-12T05:09:49.229Z,98099.28
2023-09-12T05:12:15.894Z,98106.91
2023-09-12T05:14:44.799Z,98112.38
2023-09-12T05:17:11.306Z,98106.34
2023-09-12T05:19:37.815Z,98112.97
2023-09-12T05:22:04.616Z,98117.00
2023-09-12T05:24:31.261Z,98116.63
2023-09-12T05:26:57.806Z,98121.47
2023-09-12T05:29:24.289Z,98123.56
2023-09-12T05:31:50.963Z,98132.47
2023-09-12T05:34:17.688Z,98127.19
2023-09-12T05:36:44.256Z,98125.00
2023-09-12T05:39:10.847Z,98123.66
2023-09-12T05:41:37.579Z,98135.22
2023-09-12T05:44:04.917Z,98132.81
2023-09-12T05:46:31.421Z,98134.41
2023-09-12T05:48:58.033Z,98139.78
2023-09-12T05:51:24.673Z,98138.00
2023-09-12T05:53:51.158Z,98128.38
2023-09-12T05:56:17.703Z,98140.09
2023-09-12T05:58:44.637Z,98135.09
2023-09-12T06:01:12.051Z,98136.22
2023-09-12T06:03:38.847Z,98129.59
2023-09-12T06:06:05.680Z,98134.63
2023-09-12T06:08:32.257Z,98130.44
2023-09-12T06:10:58.766Z,98136.66
2023-09-12T06:13:25.993Z,98131.72
2023-09-12T06:15:52.616Z,98136.41
2023-09-12T06:18:20.871Z,98139.41
2023-09-12T06:20:47.454Z,98144.09
2023-09-12T06:23:13.984Z,98132.84
2023-09-12T06:25:40.547Z,98136.63
2023-09-12T06:28:10.159Z,98140.75
2023-09-12T06:30:36.893Z,98128.72
2023-09-12T06:33:03.658Z,98136.22
2023-09-12T06:35:30.233Z,98138.19
2023-09-12T06:37:57.960Z,98142.31
2023-09-12T06:40:24.509Z,98144.81
2023-09-12T06:42:51.192Z,98134.84
2023-09-12T06:45:17.809Z,98155.44
2023-09-12T06:47:44.390Z,98142.47
2023-09-12T06:50:14.675Z,98135.81
2023-09-12T06:52:42.820Z,98134.41
2023-09-12T06:55:09.649Z,98147.69
2023-09-12T06:57:36.278Z,98138.09
2023-09-12T07:00:07.585Z,98147.72
2023-09-12T07:02:34.513Z,98148.22
2023-09-12T07:05:01.204Z,98139.28
2023-09-12T07:07:27.745Z,98137.69
2023-09-12T07:10:01.685Z,98134.59
2023-09-12T07:12:35.287Z,98136.91
2023-09-12T07:15:02.180Z,98142.47
2023-09-12T07:17:29.497Z,98149.22
2023-09-12T07:19:56.219Z,98144.66
2023-09-12T07:22:22.756Z,98145.56
2023-09-12T07:24:49.395Z,98142.28
2023-09-12T07:27:16.001Z,98145.63
2023-09-12T07:29:42.507Z,98152.69
2023-09-12T07:32:09.066Z,98154.31
2023-09-12T07:34:35.605Z,98153.13
2023-09-12T07:37:02.150Z,98160.50
2023-09-12T07:39:28.706Z,98160.16
2023-09-12T07:41:55.374Z,98154.69
2023-09-12T07:44:22.057Z,98151.81
2023-09-12T07:46:48.589Z,98149.13
2023-09-12T07:49:15.096Z,98144.13
2023-09-12T07:51:41.608Z,98154.56
2023-09-12T07:54:08.123Z,98154.59
2023-09-12T07:56:34.630Z,98148.38
2023-09-12T07:59:01.110Z,98154.31
2023-09-12T08:01:28.525Z,98161.06
2023-09-12T08:03:55.757Z,98148.34
2023-09-12T08:06:25.166Z,98156.56
2023-09-12T08:08:51.802Z,98158.69
2023-09-12T08:11:18.366Z,98165.31
2023-09-12T08:13:47.155Z,98163.97
2023-09-12T08:16:13.742Z,98158.72
2023-09-12T08:18:40.320Z,98158.53
2023-09-12T08:21:07.040Z,98158.47
2023-09-12T08:23:33.675Z,98163.94
2023-09-12T08:26:00.815Z,98169.56
2023-09-12T08:28:27.396Z,98164.41
2023-09-12T08:30:53.977Z,98163.63
2023-09-12T08:33:21.313Z,98162.06
2023-09-12T08:35:50.682Z,98168.78
2023-09-12T08:38:17.470Z,98172.91
2023-09-12T08:40:51.368Z,98172.53
2023-09-12T08:43:18.292Z,98167.34
2023-09-12T08:45:45.970Z,98173.59
2023-09-12T08:48:13.913Z,98167.78
2023-09-12T08:50:40.583Z,98161.03
2023-09-12T08:53:08.893Z,98163.56
2023-09-12T08:55:37.119Z,98162.97
2023-09-12T08:58:05.918Z,98166.72
2023-09-12T09:00:32.953Z,98150.03
2023-09-12T09:03:00.338Z,98156.97
2023-09-12T09:05:28.778Z,98159.28
2023-09-12T09:07:55.986Z,98159.88
2023-09-12T09:10:34.723Z,98158.41
2023-09-12T09:13:11.031Z,98157.06
2023-09-12T09:15:39.137Z,98158.75
2023-09-12T09:18:07.006Z,98162.69
2023-09-12T09:20:36.061Z,98158.59
2023-09-12T09:23:07.310Z,98158.78
2023-09-12T09:25:35.067Z,98156.91
2023-09-12T09:28:06.171Z,98155.69
2023-09-12T09:30:49.920Z,98150.34
2023-09-12T09:33:16.900Z,98155.41
2023-09-12T09:35:47.559Z,98154.13
2023-09-12T09:38:17.523Z,98143.69
2023-09-12T09:40:45.657Z,98137.28
2023-09-12T09:43:12.786Z,98137.88
2023-09-12T09:45:47.420Z,98141.41
2023-09-12T09:48:25.830Z,98137.22
2023-09-12T09:50:53.910Z,98142.66
2023-09-12T09:53:30.511Z,98137.47
2023-09-12T09:56:12.571Z,98128.25
2023-09-12T09:58:53.784Z,98137.16
2023-09-12T10:01:22.830Z,98130.16
2023-09-12T10:03:51.360Z,98128.25
2023-09-12T10:06:19.836Z,98121.38
2023-09-12T10:08:51.188Z,98116.50
2023-09-12T10:11:19.686Z,98121.59
2023-09-12T10:13:50.167Z,98118.06
2023-09-12T10:16:17.707Z,98118.28
2023-09-12T10:19:08.097Z,98115.94
2023-09-12T10:21:36.232Z,98110.38
2023-09-12T10:24:04.868Z,98112.88
2023-09-12T10:26:35.845Z,98115.41
2023-09-12T10:29:03.907Z,98117.97
2023-09-12T10:31:33.032Z,98107.94
2023-09-12T10:34:01.164Z,98105.22
2023-09-12T10:36:28.084Z,98106.53
2023-09-12T10:38:56.199Z,98103.72
2023-09-12T10:41:25.177Z,98102.56
2023-09-12T10:43:54.955Z,98093.69
2023-09-12T10:46:22.388Z,98101.06
2023-09-12T10:48:49.280Z,98101.03
2023-09-12T10:51:19.133Z,98097.88
2023-09-12T10:53:49.812Z,98099.44
2023-09-12T10:56:19.333Z,98091.09
2023-09-12T10:59:13.652Z,98088.31
2023-09-12T11:01:46.713Z,98087.16
2023-09-12T11:04:28.429Z,98088.72
2023-09-12T11:06:56.537Z,98091.03
2023-09-12T11:09:26.850Z,98083.44
2023-09-12T11:12:11.086Z,98084.13
2023-09-12T11:14:38.910Z,98091.84
2023-09-12T11:17:08.795Z,98088.13
2023-09-12T11:19:52.966Z,98075.72
2023-09-12T11:22:28.763Z,98092.22
2023-09-12T11:24:59.708Z,98078.84
2023-09-12T11:28:01.393Z,98085.00
2023-09-12T11:30:32.064Z,98079.28
2023-09-12T11:33:01.214Z,98074.50
2023-09-12T11:35:30.323Z,98074.91
2023-09-12T11:38:01.174Z,98075.34
2023-09-12T11:40:44.854Z,98075.34
2023-09-12T11:43:28.240Z,98072.44
2023-09-12T11:45:57.295Z,98071.09
2023-09-12T11:48:24.015Z,98063.81
2023-09-12T11:50:53.537Z,98058.44
2023-09-12T11:53:26.959Z,98061.41
2023-09-12T11:55:59.105Z,98067.38
2023-09-12T11:58:26.615Z,98070.22
2023-09-12T12:00:55.267Z,98065.53
2023-09-12T12:03:23.664Z,98065.94
2023-09-12T12:05:51.350Z,98062.56
2023-09-12T12:10:53.168Z,98057.06
2023-09-12T12:13:21.292Z,98042.72
2023-09-12T12:15:48.260Z,98042.22
2023-09-12T12:18:15.444Z,98044.50
2023-09-12T12:20:43.105Z,98044.22
2023-09-12T12:23:09.825Z,98050.69
2023-09-12T12:25:36.874Z,98047.88
2023-09-12T12:28:05.080Z,98039.44
2023-09-12T12:30:33.865Z,98039.66
2023-09-12T12:33:15.734Z,98044.13
2023-09-12T12:35:53.997Z,98041.28
2023-09-12T12:38:21.668Z,98043.63
2023-09-12T12:40:50.277Z,98037.16
2023-09-12T12:43:21.809Z,98026.81
2023-09-12T12:45:58.404Z,98021.63
2023-09-12T12:48:35.862Z,98025.88
2023-09-12T12:51:24.060Z,98024.81
2023-09-12T12:53:55.450Z,98033.25
2023-09-12T12:56:24.532Z,98023.78
2023-09-12T12:58:58.173Z,98019.72
2023-09-12T13:01:25.725Z,98006.53
2023-09-12T13:03:52.639Z,98017.03
2023-09-12T13:06:19.775Z,98004.13
2023-09-12T13:08:47.933Z,98006.53
2023-09-12T13:11:17.889Z,98006.81
2023-09-12T13:13:46.029Z,97998.09
2023-09-12T13:16:14.365Z,97990.06
2023-09-12T13:18:41.665Z,97983.03
2023-09-12T13:21:08.607Z,97986.28
2023-09-12T13:23:37.884Z,97977.88
2023-09-12T13:26:05.318Z,97974.13
2023-09-12T13:28:31.813Z,97965.19
2023-09-12T13:31:01.277Z,97973.88
2023-09-12T13:33:28.175Z,97967.72
2023-09-12T13:35:54.762Z,97974.13
2023-09-12T13:38:21.512Z,97976.94
2023-09-12T13:40:48.124Z,97977.59
2023-09-12T13:43:15.310Z,97973.63
2023-09-12T13:45:42.233Z,97970.22
2023-09-12T13:48:09.554Z,97979.19
2023-09-12T13:50:36.646Z,97971.00
2023-09-12T13:53:11.222Z,97972.50
2023-09-12T13:56:18.323Z,97974.31
2023-09-12T13:58:28.859Z,97969.59
2023-09-12T14:00:57.360Z,97977.69
2023-09-12T14:03:24.361Z,97981.53
2023-09-12T14:05:51.658Z,97972.91
2023-09-12T14:08:19.476Z,97976.41
2023-09-12T14:10:46.653Z,97982.19
2023-09-12T14:15:43.635Z,97972.31
2023-09-12T14:18:11.277Z,97965.56
2023-09-12T14:20:38.042Z,97961.19
2023-09-12T14:23:06.180Z,97963.22
2023-09-12T14:25:33.465Z,97957.34
2023-09-12T14:28:00.358Z,97959.22
2023-09-12T14:30:35.219Z,97953.88
2023-09-12T14:33:04.106Z,97953.28
2023-09-12T14:35:30.800Z,97949.75
2023-09-12T14:37:57.446Z,97951.59
2023-09-12T14:40:24.960Z,97955.53
2023-09-12T14:42:51.682Z,97954.91
2023-09-12T14:45:18.529Z,97946.94
2023-09-12T14:47:45.132Z,97944.66
2023-09-12T14:50:11.776Z,97941.00
2023-09-12T14:52:39.513Z,97937.25
2023-09-12T14:55:09.565Z,97934.94
2023-09-12T14:57:36.205Z,97942.13
2023-09-12T15:00:02.954Z,97935.88
2023-09-12T15:02:32.640Z,97934.25
2023-09-12T15:05:04.985Z,97933.72
2023-09-12T15:07:31.725Z,97927.22
2023-09-12T15:09:58.659Z,97928.19
2023-09-12T15:12:26.043Z,97936.53
2023-09-12T15:14:52.966Z,97922.31
2023-09-12T15:17:19.888Z,97925.47
2023-09-12T15:19:46.548Z,97921.00
2023-09-12T15:22:13.549Z,97920.56
2023-09-12T15:24:41.844Z,97915.56
2023-09-12T15:27:08.449Z,97923.81
2023-09-12T15:29:35.583Z,97918.31
2023-09-12T15:32:02.259Z,97913.09
2023-09-12T15:34:28.870Z,97916.16
2023-09-12T15:37:22.306Z,97919.06
2023-09-12T15:39:49.748Z,97921.56
2023-09-12T15:42:32.786Z,97931.88
2023-09-12T15:45:03.544Z,97931.03
2023-09-12T15:47:30.998Z,97941.09
2023-09-12T15:49:57.794Z,97928.22
2023-09-12T15:52:24.558Z,97931.56
2023-09-12T15:54:53.286Z,97928.22
2023-09-12T15:57:20.309Z,97930.31
2023-09-12T15:59:46.865Z,97931.88
2023-09-12T16:02:13.864Z,97945.47
2023-09-12T16:04:40.629Z,97931.94
2023-09-12T16:07:07.350Z,97946.78
2023-09-12T16:09:34.019Z,97947.72
2023-09-12T16:12:00.536Z,97952.13
2023-09-12T16:14:27.152Z,97953.88
2023-09-12T16:16:53.857Z,97962.31
2023-09-12T16:19:20.402Z,97966.88
2023-09-12T16:21:47.180Z,97974.66
2023-09-12T16:24:13.774Z,97962.75
2023-09-12T16:26:40.281Z,97974.19
2023-09-12T16:29:07.026Z,97974.00
2023-09-12T16:31:33.741Z,97974.41
2023-09-12T16:34:00.499Z,97966.13
2023-09-12T16:36:27.372Z,97968.81
2023-09-12T16:38:54.646Z,97974.28
2023-09-12T16:41:21.274Z,97970.00
2023-09-12T16:43:47.868Z,97973.72
2023-09-12T16:46:14.539Z,97980.41
2023-09-12T16:48:41.861Z,97997.28
2023-09-12T16:51:08.358Z,98003.22
2023-09-12T16:53:34.820Z,98008.59
2023-09-12T16:56:01.357Z,98006.19
2023-09-12T16:58:28.070Z,98006.25
2023-09-12T17:00:55.093Z,98007.13
2023-09-12T17:03:21.888Z,98008.34
2023-09-12T17:05:48.918Z,98009.56
2023-09-12T17:08:15.599Z,98011.22
2023-09-12T17:10:43.144Z,98012.84
2023-09-12T17:13:09.909Z,98019.25
2023-09-12T17:15:38.711Z,98028.81
2023-09-12T17:18:06.374Z,98022.47
2023-09-12T17:20:34.086Z,98027.19
2023-09-12T17:23:00.693Z,98021.25
2023-09-12T17:25:27.257Z,98023.25
2023-09-12T17:27:53.866Z,98026.41
2023-09-12T17:30:20.652Z,98027.22
2023-09-12T17:32:47.273Z,98030.31
2023-09-12T17:35:13.970Z,98032.69
2023-09-12T17:37:40.937Z,98039.44
2023-09-12T17:40:08.367Z,98045.78
2023-09-12T17:42:35.734Z,98055.69
2023-09-12T17:45:02.496Z,98064.00
2023-09-12T17:47:29.145Z,98070.34
2023-09-12T17:49:57.352Z,98069.09
2023-09-12T17:52:23.985Z,98085.69
2023-09-12T17:54:50.555Z,98082.91
2023-09-12T17:57:17.151Z,98092.75
2023-09-12T17:59:45.314Z,98091.56
2023-09-12T18:02:12.297Z,98088.88
2023-09-12T18:04:40.074Z,98094.06
2023-09-12T18:07:07.010Z,98098.34
2023-09-12T18:09:35.432Z,98095.16
2023-09-12T18:12:02.147Z,98091.94
2023-09-12T18:14:28.648Z,98090.19
2023-09-12T18:16:55.525Z,98091.63
2023-09-12T18:19:23.490Z,98097.03
2023-09-12T18:21:50.573Z,98100.09
2023-09-12T18:24:18.570Z,98101.63
2023-09-12T18:26:46.090Z,98099.28
2023-09-12T18:29:18.956Z,98102.72
2023-09-12T18:31:45.631Z,98107.16
2023-09-12T18:34:12.271Z,98108.53
2023-09-12T18:36:39.195Z,98120.31
2023-09-12T18:39:08.106Z,98117.88
2023-09-12T18:41:35.618Z,98122.94
2023-09-12T18:44:03.192Z,98128.94
2023-09-12T18:46:29.908Z,98123.41
2023-09-12T18:48:56.636Z,98121.34
2023-09-12T18:51:23.540Z,98119.16
2023-09-12T18:53:50.081Z,98125.88
2023-09-12T18:56:16.634Z,98124.44
2023-09-12T18:58:43.331Z,98123.91
2023-09-12T19:01:10.037Z,98125.53
2023-09-12T19:03:36.936Z,98127.38
2023-09-12T19:06:04.832Z,98124.03
2023-09-12T19:08:31.441Z,98128.28
2023-09-12T19:10:58.154Z,98127.44
2023-09-12T19:13:24.649Z,98145.41
2023-09-12T19:15:51.239Z,98143.84
2023-09-12T19:18:17.802Z,98146.59
2023-09-12T19:20:44.374Z,98156.44
2023-09-12T19:23:10.977Z,98164.28
2023-09-12T19:25:41.136Z,98165.50
2023-09-12T19:28:10.111Z,98159.59
2023-09-12T19:30:39.939Z,98175.28
2023-09-12T19:33:09.634Z,98178.63
2023-09-12T19:35:41.838Z,98186.13
2023-09-12T19:38:08.828Z,98189.59
2023-09-12T19:40:37.348Z,98198.38
2023-09-12T19:43:04.364Z,98196.25
2023-09-12T19:45:31.091Z,98198.16
2023-09-12T19:48:01.489Z,98194.66
2023-09-12T19:50:31.692Z,98195.50
2023-09-12T19:52:58.194Z,98196.25
2023-09-12T19:55:26.223Z,98201.47
2023-09-12T19:57:53.292Z,98201.38
2023-09-12T20:00:19.926Z,98210.22
2023-09-12T20:02:47.579Z,98213.81
2023-09-12T20:05:14.208Z,98224.81
2023-09-12T20:07:40.732Z,98227.28
2023-09-12T20:10:07.637Z,98234.44
2023-09-12T20:12:34.453Z,98242.97
2023-09-12T20:15:01.265Z,98235.41
2023-09-12T20:17:28.047Z,98238.97
2023-09-12T20:19:54.967Z,98240.94
2023-09-12T20:22:21.723Z,98246.41
2023-09-12T20:24:48.338Z,98243.53
2023-09-12T20:27:14.892Z,98248.78
2023-09-12T20:29:41.467Z,98253.69
2023-09-12T20:32:08.171Z,98252.31
2023-09-12T20:34:35.871Z,98255.03
2023-09-12T20:37:05.885Z,98259.75
2023-09-12T20:39:33.958Z,98258.38
2023-09-12T20:42:01.393Z,98262.75
2023-09-12T20:44:28.424Z,98261.78
2023-09-12T20:46:55.735Z,98258.31
2023-09-12T20:49:22.467Z,98269.63
2023-09-12T20:51:50.360Z,98280.34
2023-09-12T20:54:18.617Z,98282.31
2023-09-12T20:56:48.914Z,98287.28
2023-09-12T20:59:15.766Z,98279.41
2023-09-12T21:01:42.444Z,98283.63
2023-09-12T21:04:09.245Z,98289.00
2023-09-12T21:06:36.048Z,98283.41
2023-09-12T21:09:03.811Z,98291.41
2023-09-12T21:11:30.502Z,98325.34
2023-09-12T21:13:57.074Z,98326.66
2023-09-12T21:16:23.695Z,98314.72
2023-09-12T21:18:50.301Z,98309.09
2023-09-12T21:21:16.944Z,98303.13
2023-09-12T21:23:43.653Z,98296.38
2023-09-12T21:26:10.434Z,98305.81
2023-09-12T21:28:36.971Z,98294.13
2023-09-12T21:31:05.020Z,98293.13
2023-09-12T21:33:31.712Z,98318.97
2023-09-12T21:35:58.279Z,98322.50
2023-09-12T21:38:24.835Z,98317.59
2023-09-12T21:40:51.399Z,98331.75
2023-09-12T21:43:17.932Z,98327.94
2023-09-12T21:45:44.633Z,98340.09
2023-09-12T21:48:11.426Z,98347.81
2023-09-12T21:50:38.067Z,98349.00
2023-09-12T21:53:05.609Z,98358.84
2023-09-12T21:55:35.677Z,98350.28
2023-09-12T21:58:03.631Z,98344.81
2023-09-12T22:00:32.211Z,98341.91
2023-09-12T22:02:59.584Z,98340.00
2023-09-12T22:05:26.874Z,98338.47
2023-09-12T22:07:53.572Z,98342.53
2023-09-12T22:10:21.241Z,98356.38
2023-09-12T22:12:48.264Z,98359.81
2023-09-12T22:15:17.092Z,98354.31
2023-09-12T22:17:43.874Z,98349.13
2023-09-12T22:20:14.035Z,98346.75
2023-09-12T22:22:40.970Z,98354.31
2023-09-12T22:25:07.850Z,98349.94
2023-09-12T22:27:34.618Z,98352.72
2023-09-12T22:30:01.302Z,98355.06
2023-09-12T22:32:28.712Z,98356.34
2023-09-12T22:34:55.255Z,98353.84
2023-09-12T22:37:21.817Z,98360.84
2023-09-12T22:39:49.017Z,98353.94
2023-09-12T22:42:15.815Z,98357.28
2023-09-12T22:44:43.311Z,98353.97
2023-09-12T22:47:09.889Z,98350.75
2023-09-12T22:49:36.716Z,98351.31
2023-09-12T22:52:04.534Z,98352.38
2023-09-12T22:54:31.358Z,98345.81
2023-09-12T22:56:57.918Z,98339.53
2023-09-12T22:59:24.550Z,98338.63
2023-09-12T23:01:51.266Z,98346.28
2023-09-12T23:04:18.049Z,98338.03
2023-09-12T23:06:45.637Z,98329.16
2023-09-12T23:09:12.324Z,98334.19
2023-09-12T23:11:38.901Z,98346.66
2023-09-12T23:14:05.475Z,98349.84
2023-09-12T23:16:32.396Z,98361.88
2023-09-12T23:18:59.106Z,98366.72
2023-09-12T23:21:25.618Z,98358.31
2023-09-12T23:23:52.268Z,98335.63
2023-09-12T23:26:19.835Z,98343.88
2023-09-12T23:28:46.397Z,98347.19
2023-09-12T23:31:13.032Z,98359.09
2023-09-12T23:33:39.697Z,98366.66
2023-09-12T23:36:06.322Z,98391.69
2023-09-12T23:38:32.918Z,98383.19
2023-09-12T23:40:59.414Z,98373.94
2023-09-12T23:43:25.952Z,98348.69
2023-09-12T23:45:52.620Z,98359.84
2023-09-12T23:48:19.176Z,98347.97
2023-09-12T23:50:45.722Z,98348.69
2023-09-12T23:53:12.285Z,98342.75
2023-09-12T23:55:38.841Z,98338.38
2023-09-12T23:58:05.413Z,98338.38
